Time;durP1;ratioP1;P1;durP2;ratioP2;P2;SDS_P1;SDS_P2;PMS_P1;PMS_P2;Temp;Humidity;BMP_temperature;BMP_pressure;BME280_temperature;BME280_humidity;BME280_pressure;Samples;Min_cycle;Max_cycle;Signal;HPM_P1;HPM_P2
2021/07/17 00:01:09;;;;;;;10.38;6.95;;;20.10;86.70;;;;;;4901242;29;20377;-85
2021/07/17 00:03:39;;;;;;;11.88;7.32;;;20.00;86.70;;;;;;4901129;29;20056;-85
2021/07/17 00:06:05;;;;;;;11.75;7.28;;;19.90;86.70;;;;;;4901047;29;20025;-84
2021/07/17 00:08:31;;;;;;;10.75;7.30;;;19.90;86.80;;;;;;4901107;29;20056;-84
2021/07/17 00:11:06;;;;;;;11.85;7.45;;;20.00;87.00;;;;;;4936986;29;20079;-84
2021/07/17 00:13:32;;;;;;;12.77;7.25;;;19.90;87.10;;;;;;4921792;29;20097;-84
2021/07/17 00:15:58;;;;;;;10.23;7.00;;;19.90;87.10;;;;;;4922080;29;20111;-84
2021/07/17 00:18:33;;;;;;;11.95;7.63;;;19.90;87.10;;;;;;4939013;29;20503;-84
2021/07/17 00:21:01;;;;;;;12.52;7.60;;;19.80;87.00;;;;;;4939065;29;20031;-85
2021/07/17 00:23:29;;;;;;;12.90;7.88;;;19.80;87.10;;;;;;4938635;29;20028;-85
2021/07/17 00:25:57;;;;;;;12.40;7.22;;;19.80;87.00;;;;;;4938628;29;20166;-85
2021/07/17 00:28:23;;;;;;;11.95;7.97;;;19.70;87.20;;;;;;4921266;29;20503;-85
2021/07/17 00:30:49;;;;;;;11.55;7.43;;;19.70;87.20;;;;;;4938551;29;20103;-85
2021/07/17 00:33:15;;;;;;;11.00;7.30;;;19.60;87.20;;;;;;4921640;29;20039;-85
2021/07/17 00:35:43;;;;;;;11.63;7.50;;;19.50;87.20;;;;;;4940356;29;20035;-84
2021/07/17 00:38:09;;;;;;;13.05;7.65;;;19.60;87.40;;;;;;4938236;29;20027;-85
2021/07/17 00:40:34;;;;;;;12.15;8.10;;;19.60;87.50;;;;;;4938374;29;20503;-85
2021/07/17 00:43:10;;;;;;;14.07;7.88;;;19.60;87.50;;;;;;4938623;29;20035;-85
2021/07/17 00:45:36;;;;;;;11.98;7.93;;;19.40;87.40;;;;;;4937091;29;20039;-85
2021/07/17 00:48:05;;;;;;;13.35;7.97;;;19.50;87.50;;;;;;4937053;29;20263;-84
2021/07/17 00:50:30;;;;;;;11.10;7.50;;;19.40;87.60;;;;;;4921432;29;20028;-85
2021/07/17 00:52:56;;;;;;;12.75;7.60;;;19.40;87.60;;;;;;4938046;29;20504;-85
2021/07/17 00:55:28;;;;;;;11.73;7.40;;;19.40;87.70;;;;;;4938039;29;20098;-85
2021/07/17 00:57:55;;;;;;;11.88;7.50;;;19.40;87.90;;;;;;4938132;29;20429;-85
2021/07/17 01:00:23;;;;;;;14.25;7.50;;;19.40;88.00;;;;;;4938044;29;20028;-84
2021/07/17 01:03:00;;;;;;;12.25;7.25;;;19.40;87.90;;;;;;4921006;29;20031;-84
2021/07/17 01:05:26;;;;;;;13.48;8.02;;;19.40;88.00;;;;;;4937694;29;20075;-84
2021/07/17 01:07:54;;;;;;;12.35;7.65;;;19.30;87.90;;;;;;4937923;29;20032;-84
2021/07/17 01:10:20;;;;;;;10.40;7.15;;;19.40;88.00;;;;;;4937323;29;20056;-84
2021/07/17 01:12:47;;;;;;;13.57;8.55;;;19.30;87.90;;;;;;4937496;29;20397;-84
2021/07/17 01:15:13;;;;;;;13.30;8.30;;;19.20;87.90;;;;;;4937732;29;20032;-84
2021/07/17 01:17:41;;;;;;;12.55;7.50;;;19.20;88.00;;;;;;4937776;29;20519;-84
2021/07/17 01:20:11;;;;;;;12.77;7.78;;;19.30;88.10;;;;;;4937463;29;20539;-84
2021/07/17 01:22:40;;;;;;;12.48;8.15;;;19.10;88.00;;;;;;4937636;29;20448;-84
2021/07/17 01:25:11;;;;;;;13.63;8.27;;;19.10;88.10;;;;;;4937605;29;20082;-84
2021/07/17 01:27:37;;;;;;;11.57;7.90;;;19.10;88.30;;;;;;4937534;29;20507;-84
2021/07/17 01:30:15;;;;;;;12.82;8.15;;;19.10;88.20;;;;;;4937312;29;20036;-84
2021/07/17 01:32:44;;;;;;;13.68;8.68;;;19.10;88.30;;;;;;4920429;29;20476;-84
2021/07/17 01:35:10;;;;;;;14.18;8.02;;;19.10;88.40;;;;;;4939860;29;20466;-84
2021/07/17 01:37:35;;;;;;;12.68;8.35;;;19.00;88.50;;;;;;4920421;29;20115;-84
2021/07/17 01:40:05;;;;;;;15.98;8.73;;;19.00;88.60;;;;;;4937283;29;20067;-84
2021/07/17 01:42:35;;;;;;;13.50;8.05;;;19.00;88.60;;;;;;4937040;29;20023;-84
2021/07/17 01:45:04;;;;;;;12.45;8.05;;;19.10;88.60;;;;;;4937271;29;20020;-84
2021/07/17 01:47:29;;;;;;;15.05;8.82;;;19.00;88.50;;;;;;4919911;29;20469;-84
2021/07/17 01:49:55;;;;;;;14.55;8.77;;;19.10;88.60;;;;;;4937046;29;20032;-85
2021/07/17 01:52:20;;;;;;;13.25;8.93;;;18.90;88.50;;;;;;4936974;29;20027;-85
2021/07/17 01:54:46;;;;;;;14.40;9.55;;;18.90;88.50;;;;;;4919955;29;20063;-84
2021/07/17 01:57:12;;;;;;;14.10;8.70;;;18.90;88.60;;;;;;4936721;29;20055;-84
2021/07/17 01:59:39;;;;;;;14.40;9.35;;;18.90;88.60;;;;;;4920245;29;20043;-84
2021/07/17 02:02:08;;;;;;;15.65;9.38;;;18.90;88.70;;;;;;4936780;29;20094;-85
2021/07/17 02:04:35;;;;;;;16.00;10.07;;;18.80;88.60;;;;;;4936659;29;20123;-85
2021/07/17 02:07:05;;;;;;;16.38;9.73;;;18.70;88.70;;;;;;4936999;29;20106;-85
2021/07/17 02:09:31;;;;;;;14.50;9.95;;;18.70;88.70;;;;;;4936558;29;20040;-85
2021/07/17 02:11:58;;;;;;;14.18;9.45;;;18.80;88.80;;;;;;4919458;29;20115;-85
2021/07/17 02:14:23;;;;;;;15.57;9.73;;;18.70;88.80;;;;;;4936462;29;20043;-85
2021/07/17 02:16:49;;;;;;;15.20;10.00;;;18.70;88.80;;;;;;4919607;29;20023;-85
2021/07/17 02:19:22;;;;;;;15.90;10.32;;;18.70;88.90;;;;;;4936694;29;20024;-85
2021/07/17 02:21:49;;;;;;;17.13;10.43;;;18.70;88.90;;;;;;4936595;29;20020;-85
2021/07/17 02:24:30;;;;;;;;;;;;;;;;;;;;;
2021/07/17 02:26:56;;;;;;;17.25;10.02;;;18.60;89.00;;;;;;4936797;29;20050;-86
2021/07/17 02:29:22;;;;;;;16.20;10.60;;;18.60;89.10;;;;;;4936667;29;20115;-86
2021/07/17 02:31:50;;;;;;;18.42;11.60;;;18.60;89.10;;;;;;4919573;29;20030;-86
2021/07/17 02:34:16;;;;;;;19.23;11.18;;;18.60;89.10;;;;;;4936446;29;20114;-85
2021/07/17 02:36:42;;;;;;;17.58;10.93;;;18.60;89.10;;;;;;4938492;29;20095;-85
2021/07/17 02:39:09;;;;;;;17.15;10.70;;;18.50;89.00;;;;;;4919356;29;20499;-86
2021/07/17 02:41:40;;;;;;;17.52;11.85;;;18.40;89.10;;;;;;4919160;29;20110;-86
2021/07/17 02:44:11;;;;;;;19.48;11.77;;;18.50;89.30;;;;;;4920270;29;20024;-85
2021/07/17 02:46:50;;;;;;;20.35;11.68;;;18.40;89.20;;;;;;4919481;29;20127;-87
2021/07/17 02:49:43;;;;;;;18.35;11.23;;;18.40;89.30;;;;;;4918752;29;20067;-86
2021/07/17 02:52:12;;;;;;;21.73;11.82;;;18.40;89.30;;;;;;4919131;29;20028;-86
2021/07/17 02:54:48;;;;;;;18.17;11.38;;;18.40;89.30;;;;;;4919247;29;20452;-86
2021/07/17 02:57:14;;;;;;;19.63;12.10;;;18.40;89.40;;;;;;4934954;29;20038;-84
2021/07/17 02:59:39;;;;;;;18.23;11.57;;;18.30;89.40;;;;;;4936611;29;20043;-86
2021/07/17 03:02:07;;;;;;;22.10;12.00;;;18.30;89.50;;;;;;4919098;29;20032;-85
2021/07/17 03:04:37;;;;;;;20.75;11.98;;;18.20;89.70;;;;;;4935890;29;20039;-85
2021/07/17 03:07:03;;;;;;;19.42;12.70;;;18.40;89.90;;;;;;4919020;29;20039;-85
2021/07/17 03:09:32;;;;;;;23.48;13.00;;;18.40;90.00;;;;;;4935887;29;20044;-86
2021/07/17 03:11:58;;;;;;;22.38;12.38;;;18.40;90.00;;;;;;4939001;29;20024;-86
2021/07/17 03:14:24;;;;;;;18.52;11.93;;;18.50;90.20;;;;;;4939899;29;20031;-86
2021/07/17 03:16:52;;;;;;;20.02;12.70;;;18.50;90.20;;;;;;4923040;29;20020;-86
2021/07/17 03:19:18;;;;;;;17.08;11.45;;;18.70;90.20;;;;;;4939947;29;20467;-86
2021/07/17 03:21:49;;;;;;;19.85;12.70;;;18.70;90.30;;;;;;4939822;29;20026;-86
2021/07/17 03:24:20;;;;;;;19.08;11.40;;;18.70;90.30;;;;;;4939756;29;20478;-84
2021/07/17 03:26:45;;;;;;;19.08;11.23;;;18.80;90.30;;;;;;4938581;29;20028;-85
2021/07/17 03:29:11;;;;;;;21.92;12.45;;;18.90;90.30;;;;;;4940002;29;20030;-85
2021/07/17 03:31:39;;;;;;;27.10;13.20;;;19.00;90.40;;;;;;4938521;29;20028;-84
2021/07/17 03:34:07;;;;;;;16.52;11.80;;;19.10;90.40;;;;;;4939922;29;20543;-85
2021/07/17 03:36:35;;;;;;;17.17;11.45;;;19.00;90.30;;;;;;4941368;29;20044;-85
2021/07/17 03:39:02;;;;;;;18.52;11.18;;;19.10;90.30;;;;;;4922515;29;20074;-83
2021/07/17 03:41:31;;;;;;;17.65;11.35;;;19.20;90.30;;;;;;4922670;29;20024;-83
2021/07/17 03:44:06;;;;;;;21.38;12.50;;;19.20;90.40;;;;;;4939386;29;20023;-86
2021/07/17 03:46:36;;;;;;;18.50;11.27;;;19.30;90.40;;;;;;4922544;29;20059;-86
2021/07/17 03:49:06;;;;;;;19.23;11.30;;;19.30;90.40;;;;;;4938137;29;20032;-85
2021/07/17 03:51:52;;;;;;;17.15;11.05;;;19.30;90.40;;;;;;4939338;29;20487;-85
2021/07/17 03:54:20;;;;;;;15.82;10.27;;;19.40;90.40;;;;;;4922390;29;20036;-85
2021/07/17 03:56:45;;;;;;;16.92;11.55;;;19.50;90.40;;;;;;4922855;29;20046;-85
2021/07/17 03:59:11;;;;;;;18.95;11.32;;;19.50;90.40;;;;;;4938941;29;20023;-86
2021/07/17 04:01:47;;;;;;;17.23;11.00;;;19.60;90.50;;;;;;4922008;29;20023;-86
2021/07/17 04:04:22;;;;;;;18.85;11.07;;;19.60;90.60;;;;;;4939124;29;20023;-84
2021/07/17 04:06:49;;;;;;;19.15;11.52;;;19.70;90.50;;;;;;4938109;29;20493;-84
2021/07/17 04:09:15;;;;;;;16.55;10.88;;;19.70;90.50;;;;;;4914093;29;20052;-84
2021/07/17 04:11:40;;;;;;;15.30;10.27;;;19.70;90.60;;;;;;4899936;29;20443;-84
2021/07/17 04:14:06;;;;;;;17.52;10.93;;;19.90;90.50;;;;;;4901305;29;20033;-85
2021/07/17 04:16:35;;;;;;;16.75;11.27;;;19.80;90.40;;;;;;4901144;29;20096;-85
2021/07/17 04:19:20;;;;;;;18.52;10.73;;;19.90;90.50;;;;;;4899538;29;20127;-85
2021/07/17 04:21:54;;;;;;;16.75;10.50;;;19.90;90.50;;;;;;4899739;29;20461;-85
2021/07/17 04:24:20;;;;;;;16.70;10.77;;;20.10;90.60;;;;;;4901017;29;20029;-86
2021/07/17 04:26:45;;;;;;;16.50;11.10;;;20.10;90.60;;;;;;4900606;29;20032;-86
2021/07/17 04:29:11;;;;;;;15.20;10.93;;;20.20;90.60;;;;;;4915786;29;20033;-85
2021/07/17 04:31:39;;;;;;;17.50;11.07;;;20.20;90.60;;;;;;4915600;29;20426;-86
2021/07/17 04:34:07;;;;;;;17.02;10.48;;;20.30;90.50;;;;;;4900994;29;20041;-85
2021/07/17 04:36:35;;;;;;;16.30;10.05;;;20.30;90.50;;;;;;4916867;29;20065;-86
2021/07/17 04:39:03;;;;;;;16.77;10.07;;;20.30;90.50;;;;;;4900917;29;20024;-85
2021/07/17 04:41:29;;;;;;;16.02;9.48;;;20.40;90.50;;;;;;4899739;29;20025;-86
2021/07/17 04:43:57;;;;;;;17.02;9.93;;;20.30;90.50;;;;;;4901010;29;20051;-85
2021/07/17 04:46:23;;;;;;;14.93;9.57;;;20.40;90.60;;;;;;4900399;29;20028;-85
2021/07/17 04:48:49;;;;;;;16.33;8.90;;;20.40;90.60;;;;;;4900531;29;20040;-86
2021/07/17 04:51:14;;;;;;;15.25;10.27;;;20.50;90.60;;;;;;4899267;29;20029;-86
2021/07/17 04:53:45;;;;;;;16.70;9.23;;;20.50;90.50;;;;;;4900365;29;20497;-86
2021/07/17 04:56:11;;;;;;;17.98;10.25;;;20.50;90.40;;;;;;4899616;29;20025;-86
2021/07/17 04:58:40;;;;;;;19.77;10.45;;;20.60;90.50;;;;;;4900827;29;20120;-86
2021/07/17 05:01:05;;;;;;;15.35;9.88;;;20.50;90.40;;;;;;4899272;29;20485;-86
2021/07/17 05:03:31;;;;;;;14.98;9.77;;;20.50;90.40;;;;;;4900348;29;20106;-86
2021/07/17 05:05:59;;;;;;;15.18;9.50;;;20.50;90.40;;;;;;4899374;29;20025;-86
2021/07/17 05:08:25;;;;;;;17.02;10.13;;;20.50;90.30;;;;;;4900450;29;20028;-85
2021/07/17 05:10:50;;;;;;;18.02;10.40;;;20.50;90.30;;;;;;4900484;29;20112;-85
2021/07/17 05:13:18;;;;;;;16.80;10.15;;;20.30;90.20;;;;;;4899927;29;20048;-85
2021/07/17 05:15:57;;;;;;;17.92;10.40;;;20.40;90.50;;;;;;4899106;29;20020;-86
2021/07/17 05:18:33;;;;;;;15.88;9.95;;;20.50;90.70;;;;;;4898800;29;20079;-86
2021/07/17 05:21:06;;;;;;;14.43;9.80;;;20.60;90.80;;;;;;4898846;29;20084;-86
2021/07/17 05:23:35;;;;;;;15.93;10.20;;;20.60;90.80;;;;;;4900162;29;20145;-84
2021/07/17 05:26:12;;;;;;;15.95;9.75;;;20.70;90.70;;;;;;4899087;29;20055;-85
2021/07/17 05:29:38;;;;;;;20.98;9.98;;;20.70;90.50;;;;;;4898573;29;20036;-84
2021/07/17 05:32:54;;;;;;;17.00;10.52;;;20.80;90.50;;;;;;4898627;29;20038;-85
2021/07/17 05:39:46;;;;;;;;;;;;;;;;;;;;;
2021/07/17 05:55:39;;;;;;;17.48;10.40;;;21.10;90.80;;;;;;4885238;29;20066;-91
2021/07/17 05:58:11;;;;;;;23.17;15.93;;;21.00;90.30;;;;;;4945877;29;20107;-94
2021/07/17 06:00:42;;;;;;;17.63;9.70;;;20.90;90.40;;;;;;4941203;29;20514;-86
2021/07/17 06:03:11;;;;;;;16.52;9.45;;;20.90;90.60;;;;;;4946019;28;20031;-86
2021/07/17 06:05:37;;;;;;;19.30;9.82;;;21.00;90.70;;;;;;4943743;29;20027;-95
2021/07/17 06:08:03;;;;;;;16.23;9.30;;;21.00;90.70;;;;;;4946865;29;20055;-87
2021/07/17 06:10:41;;;;;;;17.25;9.65;;;21.10;90.50;;;;;;4939061;29;20054;-87
2021/07/17 06:13:07;;;;;;;17.75;9.07;;;21.00;90.40;;;;;;4935595;29;20046;-83
2021/07/17 06:15:32;;;;;;;15.85;9.18;;;21.00;90.50;;;;;;4943757;29;20102;-86
2021/07/17 06:18:01;;;;;;;17.85;9.15;;;21.00;90.60;;;;;;4922966;29;20155;-90
2021/07/17 06:32:18;;;;;;;;;;;;;;;;;;;;;
2021/07/17 06:34:45;;;;;;;16.98;10.02;;;20.90;90.30;;;;;;4977374;28;20030;-86
2021/07/17 06:37:21;;;;;;;16.55;9.75;;;21.00;90.70;;;;;;4965485;28;20062;-90
2021/07/17 07:01:40;;;;;;;15.63;9.65;;;21.60;91.00;;;;;;4882736;29;20044;-84
2021/07/17 07:04:14;;;;;;;17.90;9.98;;;21.70;91.00;;;;;;4883223;29;20144;-89
2021/07/17 07:10:35;;;;;;;15.80;8.25;;;21.90;90.90;;;;;;4878725;29;20037;-90
2021/07/17 07:13:13;;;;;;;13.68;7.78;;;22.00;90.70;;;;;;4861666;29;20037;-85
2021/07/17 07:15:42;;;;;;;14.05;7.72;;;21.90;90.30;;;;;;4877313;29;20029;-85
2021/07/17 07:18:08;;;;;;;12.90;7.10;;;22.00;90.40;;;;;;4873545;28;20064;-85
2021/07/17 07:20:34;;;;;;;14.23;7.40;;;22.00;90.70;;;;;;4983186;28;20110;-85
2021/07/17 07:23:00;;;;;;;12.13;6.60;;;22.00;90.70;;;;;;4966922;28;20093;-85
2021/07/17 07:25:29;;;;;;;12.48;7.20;;;22.10;90.60;;;;;;4979421;28;20468;-85
2021/07/17 07:27:55;;;;;;;10.93;6.40;;;22.10;90.50;;;;;;4957919;28;20066;-86
2021/07/17 07:30:21;;;;;;;11.35;6.38;;;22.10;90.40;;;;;;4974682;28;20118;-85
2021/07/17 07:32:49;;;;;;;12.57;5.78;;;22.00;90.50;;;;;;4957359;28;20587;-85
2021/07/17 07:35:18;;;;;;;10.85;5.97;;;22.10;90.70;;;;;;4955974;28;20032;-85
2021/07/17 07:37:47;;;;;;;11.65;6.78;;;22.20;90.50;;;;;;4937888;29;20020;-84
2021/07/17 07:40:18;;;;;;;12.93;7.20;;;22.20;90.20;;;;;;4965032;28;20065;-85
2021/07/17 07:42:49;;;;;;;11.80;6.60;;;22.10;90.20;;;;;;4972738;28;20034;-85
2021/07/17 07:45:49;;;;;;;11.27;5.93;;;22.00;90.30;;;;;;4984435;28;20129;-85
2021/07/17 07:48:17;;;;;;;12.43;6.40;;;21.90;90.20;;;;;;4961810;28;20034;-85
2021/07/17 07:50:55;;;;;;;10.05;6.10;;;21.90;90.10;;;;;;4976159;28;20030;-84
2021/07/17 07:54:22;;;;;;;;;;;;;;;;;;;;;
2021/07/17 07:56:51;;;;;;;13.35;7.38;;;21.80;90.30;;;;;;4994646;28;20026;-84
2021/07/17 08:00:00;;;;;;;11.50;6.82;;;21.80;90.10;;;;;;4979860;28;20026;-86
2021/07/17 08:03:28;;;;;;;;;;;;;;;;;;;;;
2021/07/17 08:06:00;;;;;;;12.85;7.20;;;21.80;90.70;;;;;;4948867;28;20034;-85
2021/07/17 08:08:39;;;;;;;13.55;7.63;;;22.10;91.10;;;;;;4997165;28;20090;-84
2021/07/17 08:11:08;;;;;;;12.80;7.47;;;22.20;90.60;;;;;;4979882;28;20030;-85
2021/07/17 08:13:34;;;;;;;13.68;7.03;;;22.20;90.60;;;;;;4995813;28;20034;-85
2021/07/17 08:16:02;;;;;;;13.48;7.07;;;22.40;90.80;;;;;;4980516;28;20022;-85
2021/07/17 08:18:29;;;;;;;14.43;7.70;;;22.40;90.90;;;;;;4979803;28;20081;-85
2021/07/17 08:20:57;;;;;;;12.50;7.68;;;22.60;90.90;;;;;;4980126;28;20057;-85
2021/07/17 08:23:26;;;;;;;13.77;7.85;;;22.80;90.90;;;;;;4980633;28;20026;-85
2021/07/17 08:25:52;;;;;;;16.65;8.20;;;22.80;90.60;;;;;;4980927;28;20053;-86
2021/07/17 08:31:24;;;;;;;;;;;;;;;;;;;;;
2021/07/17 08:33:56;;;;;;;13.90;7.68;;;22.80;90.10;;;;;;4980980;28;20398;-87
2021/07/17 08:36:30;;;;;;;15.30;7.60;;;22.80;90.20;;;;;;4977074;28;20030;-86
2021/07/17 08:39:22;;;;;;;13.68;7.75;;;22.80;90.30;;;;;;4998178;28;20054;-84
2021/07/17 08:42:17;;;;;;;15.10;7.47;;;22.90;90.60;;;;;;4993135;28;20030;-85
2021/07/17 08:44:48;;;;;;;14.02;7.78;;;23.00;90.90;;;;;;4978709;28;20034;-83
2021/07/17 08:47:44;;;;;;;13.23;7.40;;;23.30;90.90;;;;;;4997153;28;20036;-85
2021/07/17 08:50:32;;;;;;;14.45;7.80;;;23.50;91.10;;;;;;4963099;28;20057;-85
2021/07/17 08:53:06;;;;;;;12.73;6.63;;;23.70;90.90;;;;;;4979759;28;20085;-85
2021/07/17 08:55:34;;;;;;;13.07;6.90;;;23.80;90.30;;;;;;4996575;28;20031;-85
2021/07/17 08:58:08;;;;;;;14.60;7.43;;;23.80;90.10;;;;;;4979625;28;20172;-85
2021/07/17 09:00:37;;;;;;;13.50;6.83;;;23.80;90.10;;;;;;4999112;28;20022;-84
2021/07/17 09:03:17;;;;;;;14.25;7.57;;;23.70;90.00;;;;;;4981999;28;20542;-85
2021/07/17 09:05:48;;;;;;;15.88;7.85;;;23.60;88.80;;;;;;4999968;28;20030;-86
2021/07/17 09:08:17;;;;;;;13.20;7.78;;;23.50;89.30;;;;;;4981010;28;20359;-86
2021/07/17 09:10:53;;;;;;;14.68;7.93;;;23.30;88.70;;;;;;5000630;28;20034;-87
2021/07/17 09:16:06;;;;;;;;;;;23.10;90.00;;;;;;5185445;23;20086;-86
2021/07/17 09:19:07;;;;;;;13.93;7.07;;;23.10;90.60;;;;;;4962867;28;19910;-87
2021/07/17 09:22:13;;;;;;;15.30;7.35;;;23.40;90.60;;;;;;4962942;28;20027;-87
2021/07/17 09:28:59;;;;;;;13.20;7.03;;;23.80;90.70;;;;;;4898877;29;20059;-87
2021/07/17 09:52:21;;;;;;;12.73;6.40;;;26.30;90.90;;;;;;4755288;30;20028;-87
2021/07/17 09:55:16;;;;;;;12.52;6.25;;;26.30;90.20;;;;;;4790874;30;20047;-87
2021/07/17 10:00:49;;;;;;;9.93;5.40;;;26.30;89.90;;;;;;4874658;29;20061;-88
2021/07/17 10:03:23;;;;;;;13.27;5.47;;;26.40;90.20;;;;;;4867641;29;20037;-88
2021/07/17 10:05:54;;;;;;;13.15;5.47;;;26.40;90.00;;;;;;4848893;29;20525;-85
2021/07/17 10:08:22;;;;;;;14.38;5.60;;;26.60;90.00;;;;;;4882167;29;20168;-86
2021/07/17 10:11:28;;;;;;;9.60;5.32;;;26.60;88.60;;;;;;4868681;29;20037;-86
2021/07/17 10:13:59;;;;;;;11.15;5.30;;;26.40;87.40;;;;;;4940289;29;20575;-87
2021/07/17 10:16:43;;;;;;;12.23;5.88;;;26.10;86.40;;;;;;4926224;29;20062;-87
2021/07/17 10:19:51;;;;;;;9.50;5.55;;;25.80;87.10;;;;;;4942248;28;20031;-86
2021/07/17 10:22:47;;;;;;;10.40;5.57;;;25.50;87.60;;;;;;4941794;29;20066;-86
2021/07/17 10:33:06;;;;;;;;;;;;;;;;;;;;;
2021/07/17 10:45:47;;;;;;;12.48;6.20;;;24.90;88.80;;;;;;4955141;29;20050;-87
2021/07/17 11:05:10;;;;;;;10.25;5.68;;;25.80;87.90;;;;;;5273342;23;20074;-85
2021/07/17 11:07:36;;;;;;;10.90;5.70;;;25.60;87.50;;;;;;4862230;29;20053;-85
2021/07/17 11:10:08;;;;;;;11.57;5.35;;;25.50;87.10;;;;;;4867225;29;20066;-88
2021/07/17 11:12:43;;;;;;;9.65;5.22;;;25.40;87.60;;;;;;4872936;29;20037;-90
2021/07/17 11:15:10;;;;;;;9.57;5.32;;;25.40;88.70;;;;;;4870658;29;20041;-89
2021/07/17 11:17:57;;;;;;;9.90;5.32;;;25.40;88.00;;;;;;4886111;29;20473;-86
2021/07/17 11:24:20;;;;;;;9.77;5.13;;;25.40;87.80;;;;;;4878280;29;20068;-86
2021/07/17 11:27:51;;;;;;;;;;;;;;;;;;;;;
2021/07/17 11:48:46;;;;;;;12.10;5.82;;;24.30;87.20;;;;;;4808199;29;20107;-86
2021/07/17 11:52:29;;;;;;;;;;;;;;;;;;;;;
2021/07/17 11:55:40;;;;;;;19.88;11.68;;;24.50;89.40;;;;;;4828140;29;20037;-87
2021/07/17 11:58:36;;;;;;;15.88;7.40;;;24.70;88.70;;;;;;4827329;29;20046;-88
2021/07/17 12:02:08;;;;;;;;;;;;;;;;;;;;;
2021/07/17 12:19:20;;;;;;;12.63;6.30;;;24.10;87.90;;;;;;4808223;29;20469;-87
2021/07/17 12:21:48;;;;;;;13.23;7.07;;;24.20;88.00;;;;;;4822253;29;20399;-88
2021/07/17 12:25:08;;;;;;;11.18;6.47;;;24.10;87.60;;;;;;4831518;29;20042;-86
2021/07/17 12:28:46;;;;;;;12.75;7.35;;;24.10;88.20;;;;;;4844208;29;20032;-89
2021/07/17 12:34:36;;;;;;;13.40;7.30;;;23.90;87.60;;;;;;4825765;29;20070;-87
2021/07/17 12:37:05;;;;;;;10.52;6.28;;;23.90;87.50;;;;;;4880674;29;20029;-86
2021/07/17 12:39:35;;;;;;;11.70;6.07;;;23.80;88.00;;;;;;4864660;29;20421;-85
2021/07/17 12:42:00;;;;;;;11.45;6.88;;;23.80;88.50;;;;;;4880232;29;20029;-85
2021/07/17 12:44:28;;;;;;;12.95;7.15;;;23.90;88.00;;;;;;4875568;29;20033;-86
2021/07/17 12:47:04;;;;;;;10.52;6.65;;;23.90;88.20;;;;;;4895180;29;20037;-86
2021/07/17 12:49:32;;;;;;;13.52;7.05;;;23.90;88.50;;;;;;4895998;29;20024;-86
2021/07/17 12:52:21;;;;;;;12.55;6.35;;;24.00;88.50;;;;;;4874755;29;20028;-86
2021/07/17 12:55:31;;;;;;;10.95;6.20;;;24.20;89.70;;;;;;4906446;29;20059;-87
2021/07/17 12:58:05;;;;;;;14.20;6.68;;;24.30;89.00;;;;;;4865660;29;20132;-88
2021/07/17 13:00:33;;;;;;;;;;;24.50;89.40;;;;;;4865556;29;20021;-87
2021/07/17 13:06:21;;;;;;;11.80;5.97;;;25.20;90.50;;;;;;4921243;29;20055;-86
2021/07/17 13:40:37;;;;;;;11.77;5.97;;;26.00;87.70;;;;;;4862117;29;20036;-87
2021/07/17 13:43:34;;;;;;;10.30;5.80;;;25.90;86.50;;;;;;4866656;29;20090;-85
2021/07/17 13:46:08;;;;;;;11.68;6.10;;;25.70;86.30;;;;;;4860041;29;20045;-86
2021/07/17 13:49:36;;;;;;;13.55;8.13;;;25.60;86.20;;;;;;4846416;29;20029;-86
2021/07/17 13:52:43;;;;;;;11.82;6.47;;;25.50;86.70;;;;;;4817092;29;20506;-86
2021/07/17 13:56:06;;;;;;;11.57;6.13;;;25.40;86.80;;;;;;4922876;29;20046;-86
2021/07/17 14:01:57;;;;;;;11.68;6.45;;;25.40;87.40;;;;;;4935376;29;20031;-87
2021/07/17 14:04:59;;;;;;;11.07;6.15;;;25.50;87.30;;;;;;4890043;29;20032;-86
2021/07/17 14:11:39;;;;;;;12.02;6.72;;;25.50;87.20;;;;;;4915299;29;20040;-86
2021/07/17 14:17:40;;;;;;;11.18;6.47;;;25.60;87.00;;;;;;4902020;29;20027;-87
2021/07/17 14:20:12;;;;;;;10.55;6.35;;;25.90;88.80;;;;;;4890687;29;20045;-86
2021/07/17 14:22:41;;;;;;;11.82;6.22;;;26.40;90.70;;;;;;4864373;29;20033;-86
2021/07/17 14:29:19;;;;;;;;;;;;;;;;;;;;;
2021/07/17 14:32:20;;;;;;;;;;;;;;;;;;;;;
2021/07/17 14:35:53;;;;;;;11.93;7.15;;;27.60;86.90;;;;;;4922339;29;20036;-87
2021/07/17 14:38:43;;;;;;;11.68;6.30;;;27.30;84.80;;;;;;4826006;29;20496;-86
2021/07/17 14:42:07;;;;;;;;;;;;;;;;;;;;;
2021/07/17 14:45:11;;;;;;;11.50;6.65;;;26.70;84.90;;;;;;4765669;29;20034;-86
2021/07/17 14:48:33;;;;;;;;;;;;;;;;;;;;;
2021/07/17 14:54:38;;;;;;;12.07;6.60;;;26.60;85.80;;;;;;4804698;29;20488;-86
2021/07/17 14:57:29;;;;;;;10.48;5.75;;;26.40;84.70;;;;;;4892836;29;20051;-86
2021/07/17 14:59:57;;;;;;;14.60;7.47;;;26.40;85.90;;;;;;4918898;29;20074;-85
2021/07/17 15:02:26;;;;;;;12.25;7.30;;;26.30;85.00;;;;;;4904506;29;20411;-84
2021/07/17 15:04:54;;;;;;;11.35;6.13;;;26.30;86.00;;;;;;4919384;29;20037;-84
2021/07/17 15:07:23;;;;;;;12.40;6.22;;;26.50;87.50;;;;;;4939067;29;20487;-85
2021/07/17 15:09:51;;;;;;;10.80;6.00;;;26.70;86.60;;;;;;4931188;29;20112;-84
2021/07/17 15:12:16;;;;;;;11.93;6.22;;;26.90;87.50;;;;;;4916344;29;20087;-87
2021/07/17 15:14:44;;;;;;;10.75;6.00;;;27.40;88.70;;;;;;4941056;29;20478;-86
2021/07/17 15:17:23;;;;;;;12.32;5.80;;;27.50;87.00;;;;;;4925388;29;20028;-86
2021/07/17 15:19:54;;;;;;;11.35;6.05;;;27.70;86.60;;;;;;4923722;29;20036;-85
2021/07/17 15:29:25;;;;;;;;;;;;;;;;;;;;;
2021/07/17 15:32:04;;;;;;;11.30;6.95;;;27.00;84.80;;;;;;4867678;29;20043;-86
2021/07/17 15:35:10;;;;;;;10.30;6.40;;;26.80;84.20;;;;;;4863155;29;20046;-86
2021/07/17 15:43:59;;;;;;;13.48;6.93;;;26.40;85.10;;;;;;4908329;29;20040;-86
2021/07/17 15:46:24;;;;;;;12.27;7.30;;;26.30;85.40;;;;;;4897760;29;20046;-85
2021/07/17 15:49:13;;;;;;;;;;;;;;;;;;;;;
2021/07/17 15:54:58;;;;;;;11.80;6.90;;;26.40;85.80;;;;;;5279872;23;20115;-85
2021/07/17 15:57:25;;;;;;;13.23;6.85;;;26.50;85.80;;;;;;4942172;29;20031;-85
2021/07/17 15:59:58;;;;;;;11.55;7.00;;;26.50;85.90;;;;;;4957362;29;20105;-84
2021/07/17 16:02:24;;;;;;;45.63;28.57;;;26.50;86.00;;;;;;4922704;29;20487;-85
2021/07/17 17:48:17;;;;;;;12.75;6.38;;;29.10;81.50;;;;;;5327111;23;20416;-85
2021/07/17 18:04:16;;;;;;;12.27;6.97;;;28.10;79.90;;;;;;4766094;29;20497;-85
2021/07/17 18:06:45;;;;;;;11.52;7.00;;;27.90;80.20;;;;;;4895821;29;20033;-85
2021/07/17 18:09:13;;;;;;;13.15;7.28;;;27.80;80.10;;;;;;4897803;29;20044;-85
2021/07/17 18:11:46;;;;;;;13.27;6.75;;;27.60;79.90;;;;;;4881289;29;20144;-85
2021/07/17 18:14:12;;;;;;;13.20;7.63;;;27.50;80.20;;;;;;4894898;29;20049;-86
2021/07/17 18:17:05;;;;;;;11.45;7.30;;;27.30;80.20;;;;;;4896239;29;20041;-86
2021/07/17 18:23:17;;;;;;;12.27;6.68;;;26.90;80.20;;;;;;4932559;29;20043;-85
2021/07/17 18:26:08;;;;;;;12.15;7.25;;;26.80;80.20;;;;;;4936442;29;20035;-85
2021/07/17 19:32:14;;;;;;;13.32;7.80;;;24.80;81.70;;;;;;4892886;23;20416;-86
2021/07/17 19:34:41;;;;;;;13.68;8.30;;;24.70;82.00;;;;;;4939581;29;20044;-85
2021/07/17 19:37:10;;;;;;;12.45;7.75;;;24.60;82.10;;;;;;4941347;29;20047;-86
2021/07/17 19:39:35;;;;;;;14.48;8.40;;;24.50;82.00;;;;;;4941302;29;20028;-85
2021/07/17 19:42:04;;;;;;;12.93;8.77;;;24.40;81.90;;;;;;4924106;29;20094;-86
2021/07/17 19:44:33;;;;;;;14.32;8.30;;;24.30;82.00;;;;;;4923375;29;20499;-83
2021/07/17 19:47:08;;;;;;;19.80;8.18;;;24.30;82.00;;;;;;4923968;29;20499;-85
2021/07/17 19:49:35;;;;;;;14.50;8.68;;;24.10;81.90;;;;;;4923878;29;20036;-86
2021/07/17 19:52:00;;;;;;;15.10;9.07;;;24.00;81.90;;;;;;4921479;29;20365;-85
2021/07/17 19:54:28;;;;;;;14.35;8.38;;;23.90;82.10;;;;;;4945132;29;20055;-83
2021/07/17 19:56:57;;;;;;;13.50;8.82;;;23.80;82.30;;;;;;4950510;29;20096;-84
2021/07/17 19:59:26;;;;;;;13.63;9.05;;;23.70;82.50;;;;;;4945170;29;20038;-85
2021/07/17 20:02:10;;;;;;;13.27;8.77;;;23.70;82.80;;;;;;4943836;29;20031;-86
2021/07/17 20:04:36;;;;;;;12.48;8.52;;;23.70;82.80;;;;;;4928392;29;20043;-84
2021/07/17 20:07:03;;;;;;;17.60;12.13;;;23.70;82.60;;;;;;4928503;29;20036;-84
2021/07/17 20:09:33;;;;;;;15.80;9.48;;;23.50;82.30;;;;;;4945934;29;20058;-84
2021/07/17 20:12:11;;;;;;;15.40;9.07;;;23.40;82.50;;;;;;4946417;29;20028;-83
2021/07/17 20:15:06;;;;;;;14.88;9.43;;;23.30;82.60;;;;;;4960152;29;20099;-86
2021/07/17 20:17:57;;;;;;;14.52;9.45;;;23.30;82.90;;;;;;4962265;28;20039;-85
2021/07/17 20:20:23;;;;;;;16.95;8.57;;;23.30;83.40;;;;;;4955247;29;20035;-84
2021/07/17 20:22:52;;;;;;;13.68;8.75;;;23.30;83.30;;;;;;4961644;29;20034;-85
2021/07/17 20:25:18;;;;;;;13.70;8.57;;;23.20;83.20;;;;;;4944788;29;20063;-85
2021/07/17 20:28:05;;;;;;;14.15;9.15;;;23.20;83.40;;;;;;4950854;29;20031;-86
2021/07/17 20:30:44;;;;;;;13.77;8.57;;;23.30;83.50;;;;;;4947404;29;20024;-85